Airfield :
LOGIN :

Register | Disclaimer

   EN    FR    IT 

 










Legend :    VFR   Marginal VFR   IFR   Intensive IFR   Very Intensive IFR
Visi :
Ceiling :
>= 8 km
>= 3000ft
5 to 8 km
1000 to 3000 ft
1500m to 5 km
500 to 1000 ft
800 to 1500m
200 to 500 ft
< 800m
< 200 ft
Symbols :   Thunderstorms  Fog  Heavy snow  Heavy precipitations  Wind > 20 kt
SIGMETs :     Misc.  Thunderstorms  Icing  Turbulence  Mountain Waves  Volcanic Ashes






- Airport Elevation : 464 ft
- IATA code : EVX


LFOE - Evreux

CURRENT METAR :
  • 170000Z AUTO 24010KT 9999 FEW023 OVC170 08/06 Q1014

EXPIRED METARs :
  • 162330Z AUTO 24013KT 9999 FEW022 OVC160 08/06 Q1013
  • 162300Z AUTO 24014KT 9999 SCT023 OVC170 08/06 Q1013
  • 162230Z AUTO 24013KT 9999 FEW023 SCT140 OVC160 08/06 Q1012
  • 162200Z AUTO 23014KT CAVOK 08/06 Q1012
  • 162130Z AUTO 24014KT 9999 BKN028 BKN110 OVC130 08/06 Q1011

Expired Forecast.



MET'MAP, your aeronautical weather chart ! - Copyright ORBIFLY December 2007 - Disclaimer

ORBIFLY MET'MAP TEAM :

Programming & Development : Alexandra Zaïnal
Concept & original design : Baudouin d'Aumeries
Assistance for programming : Marc-Olivier Méhu
Technical & hardware support : Manuel Goepfert

Contact : metmap@orbifly.com




SOURCES & CREDITS :

   NOAA